| time (UTC) | temp F | wind direction | speed knots | gust knots | rain 1hr in | rain 24hr in | rain mn in | humidity % | barometer mb |
| 20260502183023 | 45 | 290 | 4.3 | 0.0 | 0.00 | 0.00 | 0.00 | 32 | 1016.8 |
| 20260502181526 | 45 | 8 | 3.5 | 0.0 | 0.00 | 0.00 | 0.00 | 30 | 1017.1 |
| 20260502163009 | 42 | 281 | 4.3 | 0.0 | 0.00 | 0.00 | 0.00 | 39 | 1017.6 |
| 20260502161510 | 42 | 274 | 3.5 | 0.0 | 0.00 | 0.00 | 0.00 | 38 | 1017.8 |
| 20260502151500 | 40 | 10 | 4.3 | 0.0 | 0.00 | 0.00 | 0.00 | 48 | 1017.9 |
| 20260502150130 | 39 | 263 | 6.1 | 0.0 | 0.00 | 0.00 | 0.00 | 49 | 1018.0 |
| 20260502123030 | 31 | 269 | 2.6 | 0.0 | 0.00 | 0.00 | 0.00 | 89 | 1018.7 |
| 20260502121527 | 30 | 278 | 0.0 | 0.0 | 0.00 | 0.00 | 0.00 | 93 | 1018.7 |
| 20260502114526 | 27 | 285 | 0.0 | 0.0 | 0.00 | 0.00 | 0.00 | 95 | 1018.6 |
| 20260502113025 | 26 | 285 | 0.0 | 0.0 | 0.00 | 0.00 | 0.00 | 96 | 1018.6 |
| 20260502111523 | 25 | 285 | 0.0 | 0.0 | 0.00 | 0.00 | 0.00 | 96 | 1018.5 |
| 20260502110022 | 25 | 285 | 0.0 | 0.0 | 0.00 | 0.00 | 0.00 | 95 | 1018.4 |
| 20260502104521 | 24 | 285 | 0.0 | 0.0 | 0.00 | 0.00 | 0.00 | 95 | 1018.3 |
| 20260502103048 | 25 | 285 | 0.0 | 0.0 | 0.00 | 0.00 | 0.00 | 95 | 1018.4 |
| 20260502101519 | 25 | 285 | 0.0 | 0.0 | 0.00 | 0.00 | 0.00 | 95 | 1018.1 |
| 20260502091514 | 25 | 285 | 0.0 | 0.0 | 0.00 | 0.00 | 0.00 | 94 | 1017.9 |
| 20260502071506 | 27 | 285 | 0.0 | 0.0 | 0.00 | 0.00 | 0.00 | 93 | 1017.8 |
| 20260502070007 | 27 | 285 | 0.0 | 0.0 | 0.00 | 0.00 | 0.00 | 92 | 1017.7 |
| 20260502064503 | 28 | 285 | 0.0 | 0.0 | 0.00 | 0.00 | 0.00 | 92 | 1017.7 |
| 20260502063002 | 28 | 285 | 0.0 | 0.0 | 0.00 | 0.00 | 0.00 | 91 | 1017.8 |
| 20260502061601 | 28 | 285 | 0.0 | 0.0 | 0.00 | 0.00 | 0.00 | 91 | 1017.8 |
| 20260502060108 | 28 | 285 | 0.0 | 0.0 | 0.00 | 0.00 | 0.00 | 91 | 1017.9 |
| 20260502054625 | 29 | 278 | 0.0 | 0.0 | 0.00 | 0.00 | 0.00 | 91 | 1018.0 |
| 20260502053112 | 29 | 278 | 0.0 | 0.0 | 0.00 | 0.00 | 0.00 | 90 | 1017.8 |
| 20260502051556 | 29 | 278 | 0.0 | 0.0 | 0.00 | 0.00 | 0.00 | 90 | 1017.9 |
| 20260502050055 | 29 | 277 | 0.0 | 0.0 | 0.00 | 0.00 | 0.00 | 89 | 1017.9 |
| 20260502044554 | 29 | 283 | 0.0 | 0.0 | 0.00 | 0.00 | 0.00 | 89 | 1017.8 |
| 20260502043103 | 29 | 268 | 0.0 | 0.0 | 0.00 | 0.00 | 0.00 | 89 | 1017.8 |
| 20260502041551 | 29 | 268 | 0.0 | 0.0 | 0.00 | 0.00 | 0.00 | 88 | 1017.6 |
| 20260502040051 | 30 | 268 | 0.0 | 0.0 | 0.00 | 0.00 | 0.00 | 87 | 1017.7 |
| 20260502034547 | 31 | 268 | 0.0 | 0.0 | 0.00 | 0.00 | 0.00 | 85 | 1017.7 |
| 20260502033046 | 31 | 268 | 0.0 | 0.0 | 0.00 | 0.00 | 0.00 | 84 | 1017.9 |
| 20260502031545 | 32 | 291 | 0.0 | 0.0 | 0.00 | 0.00 | 0.00 | 84 | 1017.9 |
| 20260502030053 | 32 | 277 | 0.0 | 0.0 | 0.00 | 0.00 | 0.00 | 83 | 1017.8 |
| 20260502024545 | 32 | 307 | 0.9 | 0.0 | 0.00 | 0.00 | 0.00 | 81 | 1017.8 |
| 20260502023044 | 32 | 286 | 0.9 | 0.0 | 0.00 | 0.00 | 0.00 | 81 | 1017.9 |
| 20260502021544 | 33 | 322 | 0.9 | 0.0 | 0.00 | 0.00 | 0.00 | 79 | 1017.9 |
| 20260502020042 | 33 | 274 | 0.9 | 0.0 | 0.00 | 0.00 | 0.00 | 79 | 1017.9 |
| 20260502014540 | 33 | 286 | 1.7 | 0.0 | 0.00 | 0.00 | 0.00 | 78 | 1017.6 |
| 20260502013041 | 34 | 289 | 1.7 | 0.0 | 0.00 | 0.00 | 0.00 | 78 | 1017.6 |
| 20260502011539 | 34 | 299 | 1.7 | 0.0 | 0.00 | 0.00 | 0.00 | 76 | 1017.4 |
| 20260502010044 | 34 | 305 | 2.6 | 0.0 | 0.00 | 0.00 | 0.00 | 76 | 1017.4 |
| 20260502004537 | 34 | 289 | 3.5 | 0.0 | 0.00 | 0.00 | 0.00 | 74 | 1017.4 |
| 20260502003037 | 34 | 351 | 3.5 | 0.0 | 0.00 | 0.00 | 0.00 | 73 | 1017.3 |
| 20260502001536 | 35 | 283 | 2.6 | 0.0 | 0.00 | 0.00 | 0.00 | 72 | 1017.2 |
| 20260502000034 | 35 | 305 | 3.5 | 0.0 | 0.00 | 0.00 | 0.00 | 72 | 1017.0 |
| 20260501234535 | 35 | 275 | 3.5 | 0.0 | 0.00 | 0.00 | 0.00 | 71 | 1016.9 |
| 20260501233035 | 36 | 306 | 3.5 | 0.0 | 0.00 | 0.00 | 0.00 | 68 | 1016.8 |
| 20260501231531 | 36 | 326 | 2.6 | 0.0 | 0.00 | 0.00 | 0.00 | 66 | 1016.8 |
| 20260501230034 | 36 | 264 | 3.5 | 0.0 | 0.00 | 0.00 | 0.00 | 66 | 1016.8 |
| 20260501224529 | 37 | 281 | 2.6 | 0.0 | 0.00 | 0.00 | 0.00 | 65 | 1016.7 |
| 20260501223037 | 37 | 276 | 4.3 | 0.0 | 0.00 | 0.00 | 0.00 | 64 | 1016.5 |
| 20260501221532 | 38 | 318 | 3.5 | 0.0 | 0.00 | 0.00 | 0.00 | 61 | 1016.5 |
| 20260501220025 | 38 | 349 | 3.5 | 0.0 | 0.00 | 0.00 | 0.00 | 61 | 1016.3 |
| 20260501214530 | 38 | 291 | 5.2 | 0.0 | 0.00 | 0.00 | 0.00 | 63 | 1016.2 |
| 20260501213022 | 38 | 295 | 2.6 | 0.0 | 0.00 | 0.00 | 0.00 | 66 | 1016.1 |
| 20260501211522 | 37 | 271 | 5.2 | 0.0 | 0.00 | 0.00 | 0.00 | 67 | 1015.9 |
| 20260501210023 | 37 | 319 | 1.7 | 0.0 | 0.00 | 0.00 | 0.00 | 68 | 1016.0 |
| 20260501204521 | 37 | 290 | 2.6 | 0.0 | 0.00 | 0.00 | 0.00 | 66 | 1015.9 |
| 20260501203027 | 37 | 278 | 3.5 | 0.0 | 0.00 | 0.00 | 0.00 | 65 | 1016.0 |
| 20260501201520 | 37 | 346 | 3.5 | 0.0 | 0.00 | 0.00 | 0.00 | 60 | 1015.9 |
| 20260501200019 | 37 | 238 | 2.6 | 0.0 | 0.00 | 0.00 | 0.00 | 62 | 1015.8 |
| 20260501194519 | 37 | 272 | 3.5 | 0.0 | 0.00 | 0.00 | 0.00 | 65 | 1015.9 |
| 20260501193017 | 37 | 295 | 3.5 | 0.0 | 0.00 | 0.00 | 0.00 | 62 | 1015.8 |
| 20260501191517 | 37 | 313 | 2.6 | 0.0 | 0.00 | 0.00 | 0.00 | 63 | 1015.8 |
| 20260501190016 | 37 | 316 | 2.6 | 0.0 | 0.00 | 0.00 | 0.00 | 62 | 1015.8 |
| 20260501184515 | 37 | 332 | 2.6 | 0.0 | 0.00 | 0.00 | 0.00 | 59 | 1015.8 |